Nearby METAR Reports

 

EGNS - Isle Of Man/Rona, United Kingdom
Distance from station: SSW 16mi, 26km
Updated: 26/06/2022 18:50
Rain, Overcast
Rain, Overcast
 Wind from SSW
Wind: SSW 30 mph , 48 km/h
Temperature: 13°C
Dew Point: 12°C
Humidity: 94%
Barometer: 1004 hPa
Summary: Rain
Clouds: Overcast
Visibility: 4 miles , 6 km
Cloud details: Partly cloudy 30 m
Overcast 1219 m
2022/06/26 17:50 EGNS 261750Z 20026KT 6000 RA SCT001 OVC040 13/12 Q1004 NOSIG
EGAC - Belfast Harbour, United Kingdom
Distance from station: WNW 57mi, 92km
Updated: 26/06/2022 18:50
Thunderstorm
Thunderstorm
 Wind from SSW
Wind: SSW 12 mph , 19 km/h
Temperature: 15°C
Dew Point: 13°C
Humidity: 88%
Barometer: 1001 hPa
Clouds: Thunderstorm
Visibility: 6 miles , 10 km
2022/06/26 17:50 EGAC 261750Z AUTO 20010KT 9999 //////CB 15/13 Q1001
EGAA - Belfast/Aldergro, United Kingdom
Distance from station: WNW 71mi, 114km
Updated: 26/06/2022 18:50
Thunderstorm
Thunderstorm
 Wind from SW
Wind: SW 10 mph , 17 km/h
Temperature: 13°C
Dew Point: 11°C
Humidity: 88%
Barometer: 1001 hPa
Clouds: Thunderstorm
Visibility: 6 miles , 10 km
Cloud details: Few Clouds 305 m
Partly cloudy 1280 m
2022/06/26 17:50 EGAA 261750Z AUTO 23009KT 9999 FEW010/// SCT042/// //////CB 13/11 Q1001 RERA
 
EGNH - Blackpool Airpor, United Kingdom
Distance from station: ESE 73mi, 117km
Updated: 26/06/2022 18:50
Nearby showers, Few clouds
Nearby showers, Few clouds
 Wind from SW
Wind: SW 23 mph , 37 km/h
Temperature: 17°C
Dew Point: 11°C
Humidity: 68%
Barometer: 1007 hPa
Summary: Nearby Showers
Clouds: Few Clouds
Visibility: 6 miles , 10 km
Cloud details: Few Clouds 1067 m
2022/06/26 17:50 EGNH 261750Z 23020KT 9999 VCSH FEW035 17/11 Q1007
EGOV - Valley Raf, United Kingdom
Distance from station: S 73mi, 118km
Updated: 26/06/2022 18:50
Partly cloudy
Partly cloudy
 Wind from S
Wind: S 32 mph , 52 km/h
Temperature: 15°C
Dew Point: 11°C
Humidity: 77%
Barometer: 1006 hPa
Clouds: Partly cloudy
Visibility: 6 miles , 10 km
Cloud details: Partly cloudy 457 m
2022/06/26 17:50 EGOV 261750Z AUTO 19028KT 9999 SCT015/// 15/11 Q1006
EGNO - Wharton, United Kingdom
Distance from station: ESE 78mi, 125km
Updated: 24/06/2022 16:50
NOT Current
Mostly cloudy
Mostly cloudy
 Wind from S
Wind: S 10 mph , 17 km/h
Temperature: 19°C
Dew Point: 14°C
Humidity: 73%
Barometer: 999 hPa
Clouds: Mostly cloudy
Visibility: 6 miles , 10 km
Cloud details: Few Clouds 549 m
Mostly cloudy 1158 m
2022/06/24 15:50 EGNO 241550Z 18009KT 9999 FEW018 BKN038 19/14 Q0999
 
EGOW - Woodvale Raf, United Kingdom
Distance from station: SE 79mi, 127km
Updated: 24/06/2022 14:50
NOT Current
Partly cloudy
Partly cloudy
 Wind from S
Wind: S 10 mph , 17 km/h
Temperature: 20°C
Dew Point: 14°C
Humidity: 69%
Barometer: 1000 hPa
Clouds: Partly cloudy
Visibility: 6 miles , 10 km
Cloud details: Few Clouds 457 m
Partly cloudy 671 m
2022/06/24 13:50 EGOW 241350Z 17009KT 9999 FEW015 SCT022 20/14 Q1000 RMK WHT
EGPK - Prestwick(Civ/Na, United Kingdom
Distance from station: N 82mi, 132km
Updated: 26/06/2022 18:50
Light rain, Mostly cloudy
Light rain, Mostly cloudy
 Wind from S
Wind: S 22 mph , 35 km/h
Temperature: 14°C
Dew Point: 12°C
Humidity: 88%
Barometer: 1001 hPa
Summary: Light rain
Clouds: Mostly cloudy
Visibility: 4 miles , 6 km
Cloud details: Few Clouds 518 m
Partly cloudy 853 m
Mostly cloudy 1463 m
2022/06/26 17:50 EGPK 261750Z 18019KT 6000 -RA FEW017 SCT028 BKN048 14/12 Q1001
EGCK - Caernarfon, United Kingdom
Distance from station: S 84mi, 136km
Updated: 26/06/2022 18:50
Partly cloudy
Partly cloudy
 Wind from SSW
Wind: SSW 22 mph , 35 km/h
Temperature: 15°C
Dew Point: 11°C
Humidity: 77%
Barometer: 1007 hPa
Clouds: Partly cloudy
Visibility: 6 miles , 10 km
Cloud details: Partly cloudy 610 m
2022/06/26 17:50 EGCK 261750Z AUTO 21019KT 9999 SCT020/// 15/11 Q1007
 
EGEC - Campbeltown, United Kingdom
Distance from station: NNW 90mi, 144km
Updated: 26/06/2022 17:20
NOT Current
Light rain, Showers, Mostly cloudy
Light rain, Showers, Mostly cloudy
 Wind from SSE
Wind: SSE 23 mph , 37 km/h
Temperature: 14°C
Dew Point: 12°C
Humidity: 88%
Barometer: 998 hPa
Summary: Light rain, Showers
Clouds: Mostly cloudy
Visibility: 6 miles , 10 km
Cloud details: Few Clouds 335 m
Mostly cloudy 1463 m
2022/06/26 16:20 EGEC 261620Z 16020KT 9999 -SHRA FEW011 BKN048 14/12 Q0998
EIDW - Dublin Airport, Ireland
Distance from station: SW 93mi, 150km
Updated: 26/06/2022 19:00
Mostly cloudy
Mostly cloudy
 Wind from WSW
Wind: WSW 12 mph , 19 km/h
Temperature: 16°C
Dew Point: 10°C
Humidity: 68%
Barometer: 1003 hPa
Clouds: Mostly cloudy
Visibility: 6 miles , 10 km
Cloud details: Few Clouds 457 m
Few Clouds 610 m
Mostly cloudy 1067 m
2022/06/26 18:00 EIDW 261800Z 24010KT 200V270 9999 FEW015 FEW020CB BKN035 16/10 Q1003 NOSIG
EGOM - Spadeadam, United Kingdom
Distance from station: NE 95mi, 152km
Updated: 26/06/2022 18:50

 Wind from SSW
Wind: SSW 15 mph , 24 km/h
Visibility: 6 miles , 10 km
2022/06/26 17:50 EGOM 261750Z AUTO 20013KT 9999 RERA OVC021/// 13/11 Q1005
 
EGGP - Liverpool Airpor, United Kingdom
Distance from station: SE 98mi, 157km
Updated: 26/06/2022 18:50
Mostly cloudy
Mostly cloudy
 Wind from SSW
Wind: SSW 26 mph , 43 km/h, Gust: 38 mph , 61 km/h
Temperature: 18°C
Dew Point: 8°C
Humidity: 52%
Barometer: 1008 hPa
Clouds: Mostly cloudy
Visibility: 6 miles , 10 km
Cloud details: Few Clouds 1250 m
Mostly cloudy 1433 m
2022/06/26 17:50 EGGP 261750Z 21023G33KT 9999 FEW041 BKN047 18/08 Q1008
Flag Counter

Free Website Hit Counter
Free website hit counter